Terminal Aerodrome Forecast
Issued by NWS Cleveland, OH

Home | Current Version | Previous Version | Text Only | Print | Product List | Glossary Off
Versions: 1 2 3 4 5 6 7 8 9 10 11 12 13 14 15 16 17 18 19 20 21 22 23 24 25 26

000
FTUS41 KCLE 170540
TAFERI
TAF
KERI 170540Z 1706/1806 25015G25KT 3SM -SHSN BKN025
      TEMPO 1706/1710 1 1/2SM -SHSN BR BKN015
     FM171200 26017G30KT 2SM -SHSN OVC015
     FM171900 27019G31KT 5SM -SHSN OVC020
     FM180300 27013KT P6SM OVC015=

USA.gov is the U.S. government's official web portal to all federal, state and local government web resources and services.